sensor_id;sensor_type;location;lat;lon;timestamp;P1;durP1;ratioP1;P2;durP2;ratioP2
16403;SDS011;8311;50.158;8.642;2022-08-19T00:00:33;13.57;;;11.88;;
16403;SDS011;8311;50.158;8.642;2022-08-19T00:03:27;13.60;;;11.95;;
16403;SDS011;8311;50.158;8.642;2022-08-19T00:06:20;14.30;;;11.50;;
16403;SDS011;8311;50.158;8.642;2022-08-19T00:09:14;12.45;;;10.75;;
16403;SDS011;8311;50.158;8.642;2022-08-19T00:12:10;12.70;;;11.40;;
16403;SDS011;8311;50.158;8.642;2022-08-19T00:15:06;13.25;;;11.23;;
16403;SDS011;8311;50.158;8.642;2022-08-19T00:18:04;15.75;;;11.52;;
16403;SDS011;8311;50.158;8.642;2022-08-19T00:20:58;14.35;;;11.35;;
16403;SDS011;8311;50.158;8.642;2022-08-19T00:23:51;15.02;;;11.52;;
16403;SDS011;8311;50.158;8.642;2022-08-19T00:26:45;13.35;;;11.48;;
16403;SDS011;8311;50.158;8.642;2022-08-19T00:29:38;15.77;;;12.27;;
16403;SDS011;8311;50.158;8.642;2022-08-19T00:32:32;13.75;;;11.30;;
16403;SDS011;8311;50.158;8.642;2022-08-19T00:35:27;13.98;;;12.05;;
16403;SDS011;8311;50.158;8.642;2022-08-19T00:38:21;14.10;;;11.30;;
16403;SDS011;8311;50.158;8.642;2022-08-19T00:41:28;13.32;;;11.88;;
16403;SDS011;8311;50.158;8.642;2022-08-19T00:44:23;15.60;;;11.50;;
16403;SDS011;8311;50.158;8.642;2022-08-19T00:47:18;13.52;;;11.73;;
16403;SDS011;8311;50.158;8.642;2022-08-19T00:50:11;13.82;;;11.30;;
16403;SDS011;8311;50.158;8.642;2022-08-19T00:53:08;12.13;;;10.82;;
16403;SDS011;8311;50.158;8.642;2022-08-19T00:56:03;12.10;;;10.38;;
16403;SDS011;8311;50.158;8.642;2022-08-19T00:58:59;13.13;;;10.45;;
16403;SDS011;8311;50.158;8.642;2022-08-19T01:01:53;13.27;;;9.95;;
16403;SDS011;8311;50.158;8.642;2022-08-19T01:04:46;10.55;;;9.40;;
16403;SDS011;8311;50.158;8.642;2022-08-19T01:07:39;12.43;;;10.02;;
16403;SDS011;8311;50.158;8.642;2022-08-19T01:10:35;12.25;;;10.27;;
16403;SDS011;8311;50.158;8.642;2022-08-19T01:13:32;13.15;;;10.77;;
16403;SDS011;8311;50.158;8.642;2022-08-19T01:16:40;12.52;;;10.07;;
16403;SDS011;8311;50.158;8.642;2022-08-19T01:19:35;13.35;;;10.77;;
16403;SDS011;8311;50.158;8.642;2022-08-19T01:22:36;11.38;;;9.38;;
16403;SDS011;8311;50.158;8.642;2022-08-19T01:25:38;12.40;;;9.13;;
16403;SDS011;8311;50.158;8.642;2022-08-19T01:28:35;11.95;;;9.75;;
16403;SDS011;8311;50.158;8.642;2022-08-19T01:31:32;11.10;;;9.77;;
16403;SDS011;8311;50.158;8.642;2022-08-19T01:34:26;11.80;;;10.02;;
16403;SDS011;8311;50.158;8.642;2022-08-19T01:37:20;12.10;;;10.30;;
16403;SDS011;8311;50.158;8.642;2022-08-19T01:40:19;12.13;;;10.57;;
16403;SDS011;8311;50.158;8.642;2022-08-19T01:43:15;12.90;;;10.10;;
16403;SDS011;8311;50.158;8.642;2022-08-19T01:46:10;11.02;;;9.57;;
16403;SDS011;8311;50.158;8.642;2022-08-19T01:49:04;12.02;;;10.57;;
16403;SDS011;8311;50.158;8.642;2022-08-19T01:51:59;11.43;;;10.13;;
16403;SDS011;8311;50.158;8.642;2022-08-19T01:54:53;12.05;;;9.23;;
16403;SDS011;8311;50.158;8.642;2022-08-19T01:57:48;11.95;;;10.27;;
16403;SDS011;8311;50.158;8.642;2022-08-19T02:00:47;12.27;;;10.02;;
16403;SDS011;8311;50.158;8.642;2022-08-19T02:03:40;13.10;;;9.95;;
16403;SDS011;8311;50.158;8.642;2022-08-19T02:06:33;12.88;;;9.75;;
16403;SDS011;8311;50.158;8.642;2022-08-19T02:09:27;12.57;;;10.15;;
16403;SDS011;8311;50.158;8.642;2022-08-19T02:12:21;10.35;;;8.32;;
16403;SDS011;8311;50.158;8.642;2022-08-19T02:15:15;10.90;;;9.25;;
16403;SDS011;8311;50.158;8.642;2022-08-19T02:18:10;10.75;;;9.65;;
16403;SDS011;8311;50.158;8.642;2022-08-19T02:21:04;11.77;;;10.18;;
16403;SDS011;8311;50.158;8.642;2022-08-19T02:23:58;11.15;;;9.50;;
16403;SDS011;8311;50.158;8.642;2022-08-19T02:26:52;14.25;;;9.57;;
16403;SDS011;8311;50.158;8.642;2022-08-19T02:29:47;13.45;;;9.40;;
16403;SDS011;8311;50.158;8.642;2022-08-19T02:32:42;11.15;;;9.05;;
16403;SDS011;8311;50.158;8.642;2022-08-19T02:35:36;10.45;;;8.80;;
16403;SDS011;8311;50.158;8.642;2022-08-19T02:38:33;12.90;;;9.52;;
16403;SDS011;8311;50.158;8.642;2022-08-19T02:41:29;11.15;;;8.93;;
16403;SDS011;8311;50.158;8.642;2022-08-19T02:44:23;11.32;;;9.55;;
16403;SDS011;8311;50.158;8.642;2022-08-19T02:47:22;11.43;;;9.30;;
16403;SDS011;8311;50.158;8.642;2022-08-19T02:50:17;11.38;;;9.02;;
16403;SDS011;8311;50.158;8.642;2022-08-19T02:53:10;10.43;;;8.98;;
16403;SDS011;8311;50.158;8.642;2022-08-19T02:56:05;11.00;;;9.70;;
16403;SDS011;8311;50.158;8.642;2022-08-19T02:58:59;11.40;;;8.65;;
16403;SDS011;8311;50.158;8.642;2022-08-19T03:01:52;10.00;;;8.38;;
16403;SDS011;8311;50.158;8.642;2022-08-19T03:04:45;11.55;;;9.20;;
16403;SDS011;8311;50.158;8.642;2022-08-19T03:07:40;11.00;;;8.57;;
16403;SDS011;8311;50.158;8.642;2022-08-19T03:10:33;11.38;;;8.98;;
16403;SDS011;8311;50.158;8.642;2022-08-19T03:13:33;10.80;;;9.35;;
16403;SDS011;8311;50.158;8.642;2022-08-19T03:16:28;11.85;;;9.32;;
16403;SDS011;8311;50.158;8.642;2022-08-19T03:19:24;10.00;;;8.52;;
16403;SDS011;8311;50.158;8.642;2022-08-19T03:22:17;10.55;;;8.80;;
16403;SDS011;8311;50.158;8.642;2022-08-19T03:25:12;9.50;;;8.50;;
16403;SDS011;8311;50.158;8.642;2022-08-19T03:28:07;12.50;;;9.40;;
16403;SDS011;8311;50.158;8.642;2022-08-19T03:31:01;10.90;;;9.73;;
16403;SDS011;8311;50.158;8.642;2022-08-19T03:34:18;11.48;;;9.13;;
16403;SDS011;8311;50.158;8.642;2022-08-19T03:37:13;11.18;;;9.77;;
16403;SDS011;8311;50.158;8.642;2022-08-19T03:40:07;12.00;;;9.18;;
16403;SDS011;8311;50.158;8.642;2022-08-19T03:43:09;12.27;;;9.65;;
16403;SDS011;8311;50.158;8.642;2022-08-19T03:46:03;12.57;;;9.65;;
16403;SDS011;8311;50.158;8.642;2022-08-19T03:48:59;11.50;;;9.27;;
16403;SDS011;8311;50.158;8.642;2022-08-19T03:51:57;13.18;;;9.23;;
16403;SDS011;8311;50.158;8.642;2022-08-19T03:54:51;11.57;;;8.73;;
16403;SDS011;8311;50.158;8.642;2022-08-19T03:57:44;9.73;;;7.60;;
16403;SDS011;8311;50.158;8.642;2022-08-19T04:00:42;11.48;;;8.80;;
16403;SDS011;8311;50.158;8.642;2022-08-19T04:03:35;11.55;;;8.00;;
16403;SDS011;8311;50.158;8.642;2022-08-19T04:06:29;9.77;;;8.13;;
16403;SDS011;8311;50.158;8.642;2022-08-19T04:09:23;12.05;;;8.82;;
16403;SDS011;8311;50.158;8.642;2022-08-19T04:12:16;12.48;;;9.05;;
16403;SDS011;8311;50.158;8.642;2022-08-19T04:15:11;11.13;;;7.97;;
16403;SDS011;8311;50.158;8.642;2022-08-19T04:18:05;10.32;;;8.10;;
16403;SDS011;8311;50.158;8.642;2022-08-19T04:20:59;10.93;;;9.45;;
16403;SDS011;8311;50.158;8.642;2022-08-19T04:23:53;10.88;;;8.35;;
16403;SDS011;8311;50.158;8.642;2022-08-19T04:26:48;13.60;;;8.90;;
16403;SDS011;8311;50.158;8.642;2022-08-19T04:29:41;13.05;;;8.55;;
16403;SDS011;8311;50.158;8.642;2022-08-19T04:32:35;10.15;;;8.40;;
16403;SDS011;8311;50.158;8.642;2022-08-19T04:35:29;11.43;;;8.07;;
16403;SDS011;8311;50.158;8.642;2022-08-19T04:38:27;11.95;;;8.65;;
16403;SDS011;8311;50.158;8.642;2022-08-19T04:41:20;11.10;;;8.27;;
16403;SDS011;8311;50.158;8.642;2022-08-19T04:44:32;10.25;;;7.63;;
16403;SDS011;8311;50.158;8.642;2022-08-19T04:47:35;10.02;;;8.70;;
16403;SDS011;8311;50.158;8.642;2022-08-19T04:50:50;10.23;;;7.68;;
16403;SDS011;8311;50.158;8.642;2022-08-19T04:53:48;9.23;;;8.07;;
16403;SDS011;8311;50.158;8.642;2022-08-19T04:56:42;11.75;;;8.25;;
16403;SDS011;8311;50.158;8.642;2022-08-19T04:59:37;9.55;;;7.70;;
16403;SDS011;8311;50.158;8.642;2022-08-19T05:02:30;10.27;;;8.07;;
16403;SDS011;8311;50.158;8.642;2022-08-19T05:05:23;10.70;;;7.88;;
16403;SDS011;8311;50.158;8.642;2022-08-19T05:08:19;8.65;;;7.43;;
16403;SDS011;8311;50.158;8.642;2022-08-19T05:11:22;9.98;;;7.32;;
16403;SDS011;8311;50.158;8.642;2022-08-19T05:14:17;10.82;;;7.43;;
16403;SDS011;8311;50.158;8.642;2022-08-19T05:17:12;9.35;;;7.07;;
16403;SDS011;8311;50.158;8.642;2022-08-19T05:20:26;8.40;;;6.85;;
16403;SDS011;8311;50.158;8.642;2022-08-19T05:23:38;8.52;;;7.18;;
16403;SDS011;8311;50.158;8.642;2022-08-19T05:26:32;9.40;;;7.50;;
16403;SDS011;8311;50.158;8.642;2022-08-19T05:29:26;8.27;;;6.63;;
16403;SDS011;8311;50.158;8.642;2022-08-19T05:32:27;8.20;;;6.35;;
16403;SDS011;8311;50.158;8.642;2022-08-19T05:35:20;8.40;;;6.35;;
16403;SDS011;8311;50.158;8.642;2022-08-19T05:38:16;9.68;;;6.38;;
16403;SDS011;8311;50.158;8.642;2022-08-19T05:41:12;7.45;;;6.15;;
16403;SDS011;8311;50.158;8.642;2022-08-19T05:44:07;9.00;;;7.28;;
16403;SDS011;8311;50.158;8.642;2022-08-19T05:47:01;9.45;;;7.07;;
16403;SDS011;8311;50.158;8.642;2022-08-19T05:49:55;9.00;;;6.75;;
16403;SDS011;8311;50.158;8.642;2022-08-19T05:52:48;9.48;;;6.95;;
16403;SDS011;8311;50.158;8.642;2022-08-19T05:55:41;8.20;;;6.43;;
16403;SDS011;8311;50.158;8.642;2022-08-19T05:58:36;7.65;;;5.35;;
16403;SDS011;8311;50.158;8.642;2022-08-19T06:01:30;7.68;;;6.25;;
16403;SDS011;8311;50.158;8.642;2022-08-19T06:04:23;6.90;;;5.78;;
16403;SDS011;8311;50.158;8.642;2022-08-19T06:07:17;9.18;;;6.18;;
16403;SDS011;8311;50.158;8.642;2022-08-19T06:10:11;8.02;;;6.32;;
16403;SDS011;8311;50.158;8.642;2022-08-19T06:13:04;8.07;;;5.43;;
16403;SDS011;8311;50.158;8.642;2022-08-19T06:15:59;7.80;;;5.72;;
16403;SDS011;8311;50.158;8.642;2022-08-19T06:18:53;9.38;;;6.05;;
16403;SDS011;8311;50.158;8.642;2022-08-19T06:21:48;7.57;;;6.03;;
16403;SDS011;8311;50.158;8.642;2022-08-19T06:24:43;7.60;;;5.82;;
16403;SDS011;8311;50.158;8.642;2022-08-19T06:27:38;8.65;;;5.45;;
16403;SDS011;8311;50.158;8.642;2022-08-19T06:30:51;6.40;;;4.60;;
16403;SDS011;8311;50.158;8.642;2022-08-19T06:33:46;9.15;;;5.40;;
16403;SDS011;8311;50.158;8.642;2022-08-19T06:36:41;8.23;;;5.35;;
16403;SDS011;8311;50.158;8.642;2022-08-19T06:39:36;7.68;;;4.95;;
16403;SDS011;8311;50.158;8.642;2022-08-19T06:42:31;7.13;;;4.90;;
16403;SDS011;8311;50.158;8.642;2022-08-19T06:45:25;6.60;;;4.43;;
16403;SDS011;8311;50.158;8.642;2022-08-19T06:48:26;7.32;;;5.30;;
16403;SDS011;8311;50.158;8.642;2022-08-19T06:51:22;7.95;;;4.78;;
16403;SDS011;8311;50.158;8.642;2022-08-19T06:54:20;7.07;;;4.50;;
16403;SDS011;8311;50.158;8.642;2022-08-19T06:57:22;7.10;;;5.03;;
16403;SDS011;8311;50.158;8.642;2022-08-19T07:00:16;8.70;;;4.40;;
16403;SDS011;8311;50.158;8.642;2022-08-19T07:03:09;5.97;;;4.10;;
16403;SDS011;8311;50.158;8.642;2022-08-19T07:06:03;8.60;;;5.00;;
16403;SDS011;8311;50.158;8.642;2022-08-19T07:09:14;8.45;;;4.63;;
16403;SDS011;8311;50.158;8.642;2022-08-19T07:12:12;5.50;;;4.13;;
16403;SDS011;8311;50.158;8.642;2022-08-19T07:15:07;8.43;;;4.55;;
16403;SDS011;8311;50.158;8.642;2022-08-19T07:18:02;7.50;;;4.53;;
16403;SDS011;8311;50.158;8.642;2022-08-19T07:21:01;6.22;;;4.20;;
16403;SDS011;8311;50.158;8.642;2022-08-19T07:23:59;7.07;;;3.92;;
16403;SDS011;8311;50.158;8.642;2022-08-19T07:26:59;7.22;;;4.03;;
16403;SDS011;8311;50.158;8.642;2022-08-19T07:30:00;6.30;;;4.30;;
16403;SDS011;8311;50.158;8.642;2022-08-19T07:32:55;6.63;;;4.63;;
16403;SDS011;8311;50.158;8.642;2022-08-19T07:35:48;6.43;;;4.10;;
16403;SDS011;8311;50.158;8.642;2022-08-19T07:38:43;4.80;;;3.58;;
16403;SDS011;8311;50.158;8.642;2022-08-19T07:41:39;9.48;;;3.97;;
16403;SDS011;8311;50.158;8.642;2022-08-19T07:44:35;8.60;;;4.18;;
16403;SDS011;8311;50.158;8.642;2022-08-19T07:47:34;7.00;;;4.32;;
16403;SDS011;8311;50.158;8.642;2022-08-19T07:50:40;7.85;;;4.10;;
16403;SDS011;8311;50.158;8.642;2022-08-19T07:53:33;6.40;;;3.88;;
16403;SDS011;8311;50.158;8.642;2022-08-19T07:56:31;7.28;;;4.13;;
16403;SDS011;8311;50.158;8.642;2022-08-19T07:59:25;10.43;;;4.38;;
16403;SDS011;8311;50.158;8.642;2022-08-19T08:02:21;6.70;;;4.45;;
16403;SDS011;8311;50.158;8.642;2022-08-19T08:05:14;9.70;;;4.13;;
16403;SDS011;8311;50.158;8.642;2022-08-19T08:08:26;6.78;;;4.90;;
16403;SDS011;8311;50.158;8.642;2022-08-19T08:11:38;6.28;;;4.05;;
16403;SDS011;8311;50.158;8.642;2022-08-19T08:14:34;4.90;;;3.70;;
16403;SDS011;8311;50.158;8.642;2022-08-19T08:17:36;8.32;;;5.30;;
16403;SDS011;8311;50.158;8.642;2022-08-19T08:20:41;8.30;;;5.88;;
16403;SDS011;8311;50.158;8.642;2022-08-19T08:23:34;8.98;;;6.38;;
16403;SDS011;8311;50.158;8.642;2022-08-19T08:26:31;11.48;;;8.30;;
16403;SDS011;8311;50.158;8.642;2022-08-19T08:29:24;17.83;;;11.82;;
16403;SDS011;8311;50.158;8.642;2022-08-19T08:32:26;11.05;;;7.95;;
16403;SDS011;8311;50.158;8.642;2022-08-19T08:35:22;8.57;;;6.05;;
16403;SDS011;8311;50.158;8.642;2022-08-19T08:38:16;10.60;;;7.00;;
16403;SDS011;8311;50.158;8.642;2022-08-19T08:41:12;11.48;;;6.35;;
16403;SDS011;8311;50.158;8.642;2022-08-19T08:44:13;9.68;;;6.30;;
16403;SDS011;8311;50.158;8.642;2022-08-19T08:47:13;8.63;;;5.55;;
16403;SDS011;8311;50.158;8.642;2022-08-19T08:50:12;8.88;;;5.78;;
16403;SDS011;8311;50.158;8.642;2022-08-19T08:53:12;8.02;;;5.35;;
16403;SDS011;8311;50.158;8.642;2022-08-19T08:56:20;9.90;;;5.75;;
16403;SDS011;8311;50.158;8.642;2022-08-19T08:59:16;8.68;;;5.68;;
16403;SDS011;8311;50.158;8.642;2022-08-19T09:02:14;7.03;;;5.43;;
16403;SDS011;8311;50.158;8.642;2022-08-19T09:05:08;10.25;;;6.15;;
16403;SDS011;8311;50.158;8.642;2022-08-19T09:08:08;8.93;;;6.90;;
16403;SDS011;8311;50.158;8.642;2022-08-19T09:11:10;7.97;;;5.90;;
16403;SDS011;8311;50.158;8.642;2022-08-19T09:14:36;7.57;;;5.10;;
16403;SDS011;8311;50.158;8.642;2022-08-19T09:17:41;7.93;;;5.07;;
16403;SDS011;8311;50.158;8.642;2022-08-19T09:20:40;9.02;;;5.15;;
16403;SDS011;8311;50.158;8.642;2022-08-19T09:23:36;9.13;;;5.25;;
16403;SDS011;8311;50.158;8.642;2022-08-19T09:26:30;6.45;;;4.97;;
16403;SDS011;8311;50.158;8.642;2022-08-19T09:29:42;6.53;;;4.95;;
16403;SDS011;8311;50.158;8.642;2022-08-19T09:32:38;8.45;;;6.10;;
16403;SDS011;8311;50.158;8.642;2022-08-19T09:35:33;10.25;;;4.95;;
16403;SDS011;8311;50.158;8.642;2022-08-19T09:38:44;7.60;;;5.28;;
16403;SDS011;8311;50.158;8.642;2022-08-19T09:41:38;7.95;;;4.95;;
16403;SDS011;8311;50.158;8.642;2022-08-19T09:44:38;6.47;;;4.65;;
16403;SDS011;8311;50.158;8.642;2022-08-19T09:47:31;7.88;;;5.28;;
16403;SDS011;8311;50.158;8.642;2022-08-19T09:50:31;7.20;;;4.57;;
16403;SDS011;8311;50.158;8.642;2022-08-19T09:53:26;7.55;;;4.93;;
16403;SDS011;8311;50.158;8.642;2022-08-19T09:56:23;7.15;;;5.20;;
16403;SDS011;8311;50.158;8.642;2022-08-19T09:59:16;6.22;;;4.80;;
16403;SDS011;8311;50.158;8.642;2022-08-19T10:02:10;6.50;;;4.53;;
16403;SDS011;8311;50.158;8.642;2022-08-19T10:05:04;8.13;;;5.10;;
16403;SDS011;8311;50.158;8.642;2022-08-19T10:08:18;5.82;;;4.53;;
16403;SDS011;8311;50.158;8.642;2022-08-19T10:11:17;6.88;;;5.18;;
16403;SDS011;8311;50.158;8.642;2022-08-19T10:14:28;7.30;;;5.45;;
16403;SDS011;8311;50.158;8.642;2022-08-19T10:17:21;9.32;;;5.20;;
16403;SDS011;8311;50.158;8.642;2022-08-19T10:20:24;7.43;;;5.63;;
16403;SDS011;8311;50.158;8.642;2022-08-19T10:23:18;8.35;;;6.18;;
16403;SDS011;8311;50.158;8.642;2022-08-19T10:26:13;9.77;;;6.88;;
16403;SDS011;8311;50.158;8.642;2022-08-19T10:29:10;10.15;;;7.28;;
16403;SDS011;8311;50.158;8.642;2022-08-19T10:32:05;8.30;;;7.40;;
16403;SDS011;8311;50.158;8.642;2022-08-19T10:35:01;9.18;;;6.20;;
16403;SDS011;8311;50.158;8.642;2022-08-19T10:37:57;8.30;;;7.40;;
16403;SDS011;8311;50.158;8.642;2022-08-19T10:40:53;7.95;;;6.60;;
16403;SDS011;8311;50.158;8.642;2022-08-19T10:43:50;9.10;;;7.00;;
16403;SDS011;8311;50.158;8.642;2022-08-19T10:46:45;9.63;;;7.47;;
16403;SDS011;8311;50.158;8.642;2022-08-19T10:49:42;10.02;;;7.65;;
16403;SDS011;8311;50.158;8.642;2022-08-19T10:52:52;10.63;;;8.15;;
16403;SDS011;8311;50.158;8.642;2022-08-19T10:55:46;9.32;;;8.18;;
16403;SDS011;8311;50.158;8.642;2022-08-19T10:58:57;10.35;;;9.27;;
16403;SDS011;8311;50.158;8.642;2022-08-19T11:01:51;9.77;;;8.77;;
16403;SDS011;8311;50.158;8.642;2022-08-19T11:04:49;12.00;;;8.85;;
16403;SDS011;8311;50.158;8.642;2022-08-19T11:07:45;10.43;;;9.23;;
16403;SDS011;8311;50.158;8.642;2022-08-19T11:10:45;11.10;;;9.20;;
16403;SDS011;8311;50.158;8.642;2022-08-19T11:13:43;9.45;;;8.45;;
16403;SDS011;8311;50.158;8.642;2022-08-19T11:16:38;12.63;;;9.50;;
16403;SDS011;8311;50.158;8.642;2022-08-19T11:19:36;10.52;;;9.43;;
16403;SDS011;8311;50.158;8.642;2022-08-19T11:22:31;10.10;;;8.93;;
16403;SDS011;8311;50.158;8.642;2022-08-19T11:25:31;10.98;;;9.25;;
16403;SDS011;8311;50.158;8.642;2022-08-19T11:28:25;11.98;;;9.20;;
16403;SDS011;8311;50.158;8.642;2022-08-19T11:31:22;13.98;;;9.50;;
16403;SDS011;8311;50.158;8.642;2022-08-19T11:34:20;12.80;;;9.30;;
16403;SDS011;8311;50.158;8.642;2022-08-19T11:37:16;10.05;;;8.65;;
16403;SDS011;8311;50.158;8.642;2022-08-19T11:40:10;10.52;;;8.45;;
16403;SDS011;8311;50.158;8.642;2022-08-19T11:43:04;12.63;;;9.20;;
16403;SDS011;8311;50.158;8.642;2022-08-19T11:45:58;11.00;;;8.65;;
16403;SDS011;8311;50.158;8.642;2022-08-19T11:48:53;11.90;;;8.23;;
16403;SDS011;8311;50.158;8.642;2022-08-19T11:51:46;9.05;;;8.07;;
16403;SDS011;8311;50.158;8.642;2022-08-19T11:54:42;10.38;;;9.27;;
16403;SDS011;8311;50.158;8.642;2022-08-19T11:57:37;10.27;;;7.40;;
16403;SDS011;8311;50.158;8.642;2022-08-19T12:00:32;8.90;;;7.15;;
16403;SDS011;8311;50.158;8.642;2022-08-19T12:03:26;9.40;;;6.97;;
16403;SDS011;8311;50.158;8.642;2022-08-19T12:06:22;10.57;;;7.75;;
16403;SDS011;8311;50.158;8.642;2022-08-19T12:09:19;11.13;;;7.82;;
16403;SDS011;8311;50.158;8.642;2022-08-19T12:12:14;12.93;;;7.95;;
16403;SDS011;8311;50.158;8.642;2022-08-19T12:15:10;8.80;;;7.53;;
16403;SDS011;8311;50.158;8.642;2022-08-19T12:18:04;9.60;;;8.05;;
16403;SDS011;8311;50.158;8.642;2022-08-19T12:20:57;10.00;;;8.20;;
16403;SDS011;8311;50.158;8.642;2022-08-19T12:23:52;11.43;;;7.93;;
16403;SDS011;8311;50.158;8.642;2022-08-19T12:26:46;9.43;;;8.43;;
16403;SDS011;8311;50.158;8.642;2022-08-19T12:29:44;9.88;;;8.63;;
16403;SDS011;8311;50.158;8.642;2022-08-19T12:32:40;10.93;;;8.65;;
16403;SDS011;8311;50.158;8.642;2022-08-19T12:35:33;8.50;;;7.57;;
16403;SDS011;8311;50.158;8.642;2022-08-19T12:38:27;12.00;;;8.25;;
16403;SDS011;8311;50.158;8.642;2022-08-19T12:41:21;11.18;;;7.85;;
16403;SDS011;8311;50.158;8.642;2022-08-19T12:44:13;11.77;;;8.55;;
16403;SDS011;8311;50.158;8.642;2022-08-19T12:47:11;8.82;;;7.93;;
16403;SDS011;8311;50.158;8.642;2022-08-19T12:50:08;12.85;;;8.10;;
16403;SDS011;8311;50.158;8.642;2022-08-19T12:53:02;9.38;;;8.38;;
16403;SDS011;8311;50.158;8.642;2022-08-19T12:55:55;9.98;;;8.10;;
16403;SDS011;8311;50.158;8.642;2022-08-19T12:58:49;8.65;;;7.53;;
16403;SDS011;8311;50.158;8.642;2022-08-19T13:01:44;8.43;;;7.53;;
16403;SDS011;8311;50.158;8.642;2022-08-19T13:04:38;7.82;;;6.97;;
16403;SDS011;8311;50.158;8.642;2022-08-19T13:07:33;8.95;;;6.43;;
16403;SDS011;8311;50.158;8.642;2022-08-19T13:10:28;8.35;;;6.38;;
16403;SDS011;8311;50.158;8.642;2022-08-19T13:13:25;7.70;;;5.93;;
16403;SDS011;8311;50.158;8.642;2022-08-19T13:16:19;9.00;;;5.60;;
16403;SDS011;8311;50.158;8.642;2022-08-19T13:19:12;7.78;;;6.43;;
16403;SDS011;8311;50.158;8.642;2022-08-19T13:22:06;7.57;;;5.60;;
16403;SDS011;8311;50.158;8.642;2022-08-19T13:25:08;9.40;;;6.13;;
16403;SDS011;8311;50.158;8.642;2022-08-19T13:28:02;7.22;;;5.88;;
16403;SDS011;8311;50.158;8.642;2022-08-19T13:30:57;9.25;;;5.40;;
16403;SDS011;8311;50.158;8.642;2022-08-19T13:34:08;7.22;;;5.72;;
16403;SDS011;8311;50.158;8.642;2022-08-19T13:37:01;8.10;;;5.32;;
16403;SDS011;8311;50.158;8.642;2022-08-19T13:39:56;5.95;;;4.97;;
16403;SDS011;8311;50.158;8.642;2022-08-19T13:42:52;6.28;;;5.18;;
16403;SDS011;8311;50.158;8.642;2022-08-19T13:45:47;6.93;;;5.00;;
16403;SDS011;8311;50.158;8.642;2022-08-19T13:48:41;8.23;;;5.30;;
16403;SDS011;8311;50.158;8.642;2022-08-19T13:51:35;7.20;;;5.00;;
16403;SDS011;8311;50.158;8.642;2022-08-19T13:54:32;5.88;;;4.65;;
16403;SDS011;8311;50.158;8.642;2022-08-19T13:57:25;6.47;;;4.93;;
16403;SDS011;8311;50.158;8.642;2022-08-19T14:00:20;8.10;;;4.78;;
16403;SDS011;8311;50.158;8.642;2022-08-19T14:03:18;6.53;;;4.47;;
16403;SDS011;8311;50.158;8.642;2022-08-19T14:06:11;5.88;;;4.40;;
16403;SDS011;8311;50.158;8.642;2022-08-19T14:09:04;5.90;;;4.38;;
16403;SDS011;8311;50.158;8.642;2022-08-19T14:11:57;5.68;;;4.55;;
16403;SDS011;8311;50.158;8.642;2022-08-19T14:14:50;6.55;;;4.22;;
16403;SDS011;8311;50.158;8.642;2022-08-19T14:17:45;4.78;;;3.33;;
16403;SDS011;8311;50.158;8.642;2022-08-19T14:20:40;5.63;;;4.32;;
16403;SDS011;8311;50.158;8.642;2022-08-19T14:23:34;5.15;;;3.97;;
16403;SDS011;8311;50.158;8.642;2022-08-19T14:26:28;5.18;;;3.75;;
16403;SDS011;8311;50.158;8.642;2022-08-19T14:29:23;6.07;;;3.72;;
16403;SDS011;8311;50.158;8.642;2022-08-19T14:32:18;5.43;;;4.65;;
16403;SDS011;8311;50.158;8.642;2022-08-19T14:35:13;4.18;;;3.60;;
16403;SDS011;8311;50.158;8.642;2022-08-19T14:38:14;6.30;;;4.43;;
16403;SDS011;8311;50.158;8.642;2022-08-19T14:41:13;5.28;;;3.90;;
16403;SDS011;8311;50.158;8.642;2022-08-19T14:44:09;5.53;;;4.63;;
16403;SDS011;8311;50.158;8.642;2022-08-19T14:47:04;5.10;;;4.03;;
16403;SDS011;8311;50.158;8.642;2022-08-19T14:50:00;7.25;;;4.55;;
16403;SDS011;8311;50.158;8.642;2022-08-19T14:53:00;5.28;;;4.00;;
16403;SDS011;8311;50.158;8.642;2022-08-19T14:56:06;5.45;;;3.97;;
16403;SDS011;8311;50.158;8.642;2022-08-19T14:59:01;5.95;;;4.22;;
16403;SDS011;8311;50.158;8.642;2022-08-19T15:01:54;5.25;;;3.85;;
16403;SDS011;8311;50.158;8.642;2022-08-19T15:04:47;6.15;;;3.97;;
16403;SDS011;8311;50.158;8.642;2022-08-19T15:07:49;6.30;;;4.35;;
16403;SDS011;8311;50.158;8.642;2022-08-19T15:10:44;5.28;;;3.47;;
16403;SDS011;8311;50.158;8.642;2022-08-19T15:13:39;5.10;;;4.15;;
16403;SDS011;8311;50.158;8.642;2022-08-19T15:16:33;5.63;;;3.70;;
16403;SDS011;8311;50.158;8.642;2022-08-19T15:19:27;5.22;;;4.00;;
16403;SDS011;8311;50.158;8.642;2022-08-19T15:22:21;6.72;;;3.90;;
16403;SDS011;8311;50.158;8.642;2022-08-19T15:25:16;5.15;;;3.95;;
16403;SDS011;8311;50.158;8.642;2022-08-19T15:28:13;4.90;;;3.83;;
16403;SDS011;8311;50.158;8.642;2022-08-19T15:31:08;4.70;;;3.47;;
16403;SDS011;8311;50.158;8.642;2022-08-19T15:34:19;5.15;;;3.53;;
16403;SDS011;8311;50.158;8.642;2022-08-19T15:37:12;6.03;;;3.85;;
16403;SDS011;8311;50.158;8.642;2022-08-19T15:40:06;4.95;;;3.88;;
16403;SDS011;8311;50.158;8.642;2022-08-19T15:43:01;5.03;;;4.00;;
16403;SDS011;8311;50.158;8.642;2022-08-19T15:45:55;4.15;;;3.60;;
16403;SDS011;8311;50.158;8.642;2022-08-19T15:48:48;5.93;;;4.03;;
16403;SDS011;8311;50.158;8.642;2022-08-19T15:51:48;5.18;;;3.60;;
16403;SDS011;8311;50.158;8.642;2022-08-19T15:54:43;4.50;;;3.30;;
16403;SDS011;8311;50.158;8.642;2022-08-19T15:57:36;5.00;;;3.60;;
16403;SDS011;8311;50.158;8.642;2022-08-19T16:00:47;4.65;;;3.65;;
16403;SDS011;8311;50.158;8.642;2022-08-19T16:04:04;4.32;;;3.28;;
16403;SDS011;8311;50.158;8.642;2022-08-19T16:07:15;4.32;;;3.40;;
16403;SDS011;8311;50.158;8.642;2022-08-19T16:10:14;4.95;;;3.22;;
16403;SDS011;8311;50.158;8.642;2022-08-19T16:13:17;6.43;;;3.22;;
16403;SDS011;8311;50.158;8.642;2022-08-19T16:16:11;5.00;;;3.47;;
16403;SDS011;8311;50.158;8.642;2022-08-19T16:19:07;5.88;;;3.70;;
16403;SDS011;8311;50.158;8.642;2022-08-19T16:22:03;4.55;;;3.60;;
16403;SDS011;8311;50.158;8.642;2022-08-19T16:24:57;5.63;;;3.63;;
16403;SDS011;8311;50.158;8.642;2022-08-19T16:27:51;5.43;;;3.58;;
16403;SDS011;8311;50.158;8.642;2022-08-19T16:30:59;4.30;;;3.47;;
16403;SDS011;8311;50.158;8.642;2022-08-19T16:33:52;5.90;;;3.90;;
16403;SDS011;8311;50.158;8.642;2022-08-19T16:36:47;4.68;;;3.60;;
16403;SDS011;8311;50.158;8.642;2022-08-19T16:39:41;5.03;;;3.58;;
16403;SDS011;8311;50.158;8.642;2022-08-19T16:42:35;5.55;;;3.50;;
16403;SDS011;8311;50.158;8.642;2022-08-19T16:45:28;7.47;;;4.57;;
16403;SDS011;8311;50.158;8.642;2022-08-19T16:48:23;4.85;;;3.92;;
16403;SDS011;8311;50.158;8.642;2022-08-19T16:51:18;6.30;;;4.10;;
16403;SDS011;8311;50.158;8.642;2022-08-19T16:54:14;7.18;;;3.80;;
16403;SDS011;8311;50.158;8.642;2022-08-19T16:57:09;4.85;;;3.95;;
16403;SDS011;8311;50.158;8.642;2022-08-19T17:00:04;6.82;;;3.90;;
16403;SDS011;8311;50.158;8.642;2022-08-19T17:03:03;7.25;;;3.75;;
16403;SDS011;8311;50.158;8.642;2022-08-19T17:06:09;5.45;;;3.47;;
16403;SDS011;8311;50.158;8.642;2022-08-19T17:09:11;5.80;;;4.18;;
16403;SDS011;8311;50.158;8.642;2022-08-19T17:12:07;5.57;;;3.90;;
16403;SDS011;8311;50.158;8.642;2022-08-19T17:15:01;6.18;;;4.40;;
16403;SDS011;8311;50.158;8.642;2022-08-19T17:17:58;7.00;;;4.20;;
16403;SDS011;8311;50.158;8.642;2022-08-19T17:20:52;5.35;;;4.05;;
16403;SDS011;8311;50.158;8.642;2022-08-19T17:23:47;7.90;;;4.68;;
16403;SDS011;8311;50.158;8.642;2022-08-19T17:26:41;5.50;;;4.72;;
16403;SDS011;8311;50.158;8.642;2022-08-19T17:29:35;6.95;;;4.43;;
16403;SDS011;8311;50.158;8.642;2022-08-19T17:32:29;8.85;;;4.38;;
16403;SDS011;8311;50.158;8.642;2022-08-19T17:35:26;6.50;;;4.97;;
16403;SDS011;8311;50.158;8.642;2022-08-19T17:38:20;6.18;;;5.20;;
16403;SDS011;8311;50.158;8.642;2022-08-19T17:41:17;5.53;;;4.63;;
16403;SDS011;8311;50.158;8.642;2022-08-19T17:44:14;7.03;;;4.68;;
16403;SDS011;8311;50.158;8.642;2022-08-19T17:47:09;5.60;;;4.80;;
16403;SDS011;8311;50.158;8.642;2022-08-19T17:50:03;6.95;;;5.55;;
16403;SDS011;8311;50.158;8.642;2022-08-19T17:52:58;6.25;;;5.38;;